Time;durP1;ratioP1;P1;durP2;ratioP2;P2;SDS_P1;SDS_P2;PMS_P1;PMS_P2;Temp;Humidity;BMP_temperature;BMP_pressure;BME280_temperature;BME280_humidity;BME280_pressure;Samples;Min_cycle;Max_cycle;Signal;HPM_P1;HPM_P2
2022/11/10 00:00:26;;;;;;;8.55;1.98;;;;;;;;;;4953333;28;20039;-80
2022/11/10 00:02:52;;;;;;;8.27;1.90;;;;;;;;;;4950492;29;20031;-79
2022/11/10 00:05:17;;;;;;;5.75;1.67;;;;;;;;;;4949005;28;20023;-80
2022/11/10 00:07:43;;;;;;;6.68;1.90;;;;;;;;;;4952932;28;20062;-80
2022/11/10 00:10:08;;;;;;;5.75;1.70;;;;;;;;;;4951645;28;20040;-80
2022/11/10 00:12:34;;;;;;;6.05;1.70;;;;;;;;;;4947888;28;20039;-80
2022/11/10 00:17:44;;;;;;;7.18;1.85;;;;;;;;;;4951062;29;20093;-80
2022/11/10 00:20:11;;;;;;;8.90;2.10;;;;;;;;;;4951558;28;20127;-79
2022/11/10 00:22:38;;;;;;;8.15;2.33;;;;;;;;;;4949091;28;20093;-80
2022/11/10 00:25:04;;;;;;;4.57;1.60;;;;;;;;;;4951852;29;20031;-80
2022/11/10 00:27:31;;;;;;;6.75;1.85;;;;;;;;;;4949493;28;20376;-80
2022/11/10 00:29:56;;;;;;;7.93;1.63;;;;;;;;;;4944194;28;20019;-80
2022/11/10 00:32:21;;;;;;;7.68;1.95;;;;;;;;;;4943864;28;20517;-79
2022/11/10 00:34:47;;;;;;;5.40;1.67;;;;;;;;;;4951066;28;20035;-79
2022/11/10 00:37:12;;;;;;;5.75;1.70;;;;;;;;;;4947600;28;20107;-80
2022/11/10 00:39:37;;;;;;;6.78;1.67;;;;;;;;;;4946225;28;20057;-80
2022/11/10 00:42:03;;;;;;;7.97;1.83;;;;;;;;;;4948399;29;20046;-80
2022/11/10 00:44:29;;;;;;;8.32;2.10;;;;;;;;;;4950919;29;20078;-80
2022/11/10 00:46:54;;;;;;;8.00;2.20;;;;;;;;;;4947522;28;20099;-79
2022/11/10 00:49:20;;;;;;;5.68;1.50;;;;;;;;;;4946702;28;20392;-80
2022/11/10 00:51:46;;;;;;;7.28;2.08;;;;;;;;;;4948437;29;20034;-80
2022/11/10 00:54:11;;;;;;;7.93;1.90;;;;;;;;;;4947919;28;20447;-79
2022/11/10 00:56:36;;;;;;;5.03;1.50;;;;;;;;;;4945252;28;20050;-81
2022/11/10 00:59:02;;;;;;;5.90;1.70;;;;;;;;;;4963387;28;20514;-79
2022/11/10 01:01:27;;;;;;;8.95;1.77;;;;;;;;;;4942518;28;20085;-80
2022/11/10 01:03:54;;;;;;;5.80;1.77;;;;;;;;;;4949225;28;20054;-80
2022/11/10 01:06:20;;;;;;;8.45;1.95;;;;;;;;;;4951826;28;20031;-80
2022/11/10 01:08:46;;;;;;;8.45;1.90;;;;;;;;;;4943233;28;20408;-80
2022/11/10 01:11:24;;;;;;;7.97;2.00;;;;;;;;;;4946097;28;20031;-80
2022/11/10 01:13:51;;;;;;;5.50;1.80;;;;;;;;;;4949046;28;20078;-80
2022/11/10 01:16:20;;;;;;;4.68;1.70;;;;;;;;;;4943901;28;20035;-80
2022/11/10 01:18:50;;;;;;;6.03;1.83;;;;;;;;;;4954589;28;20028;-80
2022/11/10 01:21:16;;;;;;;6.10;2.00;;;;;;;;;;4949908;29;20038;-80
2022/11/10 01:23:42;;;;;;;7.63;1.90;;;;;;;;;;4950961;29;20027;-79
2022/11/10 01:26:07;;;;;;;5.55;1.95;;;;;;;;;;4946870;28;20025;-80
2022/11/10 01:28:34;;;;;;;6.35;1.60;;;;;;;;;;4949875;29;20455;-80
2022/11/10 01:31:08;;;;;;;7.00;1.98;;;;;;;;;;4947143;28;20501;-79
2022/11/10 01:33:34;;;;;;;9.50;1.92;;;;;;;;;;4949266;28;20472;-80
2022/11/10 01:36:00;;;;;;;6.53;1.95;;;;;;;;;;4949859;28;20033;-80
2022/11/10 01:38:30;;;;;;;5.50;1.60;;;;;;;;;;4949550;28;20487;-80
2022/11/10 01:40:57;;;;;;;7.53;2.17;;;;;;;;;;4949069;28;20028;-80
2022/11/10 01:43:23;;;;;;;8.35;2.08;;;;;;;;;;4947981;28;20977;-80
2022/11/10 01:45:52;;;;;;;6.65;1.70;;;;;;;;;;4948428;29;20062;-79
2022/11/10 01:48:38;;;;;;;4.38;1.70;;;;;;;;;;4957577;28;20086;-80
2022/11/10 01:51:33;;;;;;;6.45;1.70;;;;;;;;;;4951078;28;20062;-79
2022/11/10 01:54:03;;;;;;;6.18;1.58;;;;;;;;;;4944301;28;20049;-79
2022/11/10 01:56:31;;;;;;;6.68;1.85;;;;;;;;;;4949687;28;20031;-80
2022/11/10 01:59:02;;;;;;;5.28;1.77;;;;;;;;;;4950181;29;20031;-80
2022/11/10 02:01:27;;;;;;;6.68;1.90;;;;;;;;;;4948302;28;20119;-80
2022/11/10 02:03:56;;;;;;;8.35;1.80;;;;;;;;;;4949987;28;20027;-80
2022/11/10 02:06:25;;;;;;;8.20;1.88;;;;;;;;;;4968515;28;20563;-79
2022/11/10 02:08:51;;;;;;;6.38;1.95;;;;;;;;;;4968536;28;20051;-80
2022/11/10 02:11:17;;;;;;;9.02;1.92;;;;;;;;;;4950948;29;20039;-80
2022/11/10 02:13:42;;;;;;;4.78;1.63;;;;;;;;;;4953131;29;20050;-79
2022/11/10 02:16:09;;;;;;;6.13;2.13;;;;;;;;;;4948135;28;20503;-80
2022/11/10 02:18:36;;;;;;;9.43;2.05;;;;;;;;;;4951570;28;20027;-80
2022/11/10 02:21:08;;;;;;;7.22;1.73;;;;;;;;;;4951279;28;20066;-80
2022/11/10 02:23:34;;;;;;;8.07;1.90;;;;;;;;;;4953832;29;20046;-80
2022/11/10 02:26:03;;;;;;;8.32;1.90;;;;;;;;;;4950015;28;20031;-80
2022/11/10 02:28:33;;;;;;;5.47;1.63;;;;;;;;;;4953117;29;20031;-80
2022/11/10 02:30:58;;;;;;;8.02;1.98;;;;;;;;;;4951452;28;20411;-80
2022/11/10 02:33:23;;;;;;;7.35;2.08;;;;;;;;;;4949331;28;20023;-80
2022/11/10 02:35:49;;;;;;;7.05;2.00;;;;;;;;;;4965402;28;20027;-80
2022/11/10 02:38:14;;;;;;;5.53;1.55;;;;;;;;;;4949722;28;20024;-80
2022/11/10 02:40:40;;;;;;;7.30;1.90;;;;;;;;;;4944981;28;19945;-80
2022/11/10 02:43:13;;;;;;;7.47;1.85;;;;;;;;;;4949779;28;20035;-80
2022/11/10 02:45:41;;;;;;;;;;;;;;;;;;4952761;28;20038;-80
2022/11/10 02:48:10;;;;;;;7.40;1.50;;;;;;;;;;4946681;28;20010;-80
2022/11/10 02:50:36;;;;;;;7.03;1.95;;;;;;;;;;4951296;28;20030;-79
2022/11/10 02:53:01;;;;;;;7.88;2.13;;;;;;;;;;4946757;28;20392;-80
2022/11/10 02:55:27;;;;;;;8.35;2.00;;;;;;;;;;4946617;28;20031;-81
2022/11/10 02:57:52;;;;;;;7.47;1.75;;;;;;;;;;4954591;28;20053;-80
2022/11/10 03:00:18;;;;;;;6.72;1.77;;;;;;;;;;4948010;29;20122;-80
2022/11/10 03:02:44;;;;;;;5.25;1.60;;;;;;;;;;4947231;28;20035;-80
2022/11/10 03:05:09;;;;;;;4.80;1.52;;;;;;;;;;4959081;28;20058;-80
2022/11/10 03:07:35;;;;;;;6.60;1.77;;;;;;;;;;4950102;28;20027;-80
2022/11/10 03:10:00;;;;;;;8.38;2.03;;;;;;;;;;4964690;28;20047;-80
2022/11/10 03:12:26;;;;;;;9.82;1.92;;;;;;;;;;4951810;29;20055;-80
2022/11/10 03:14:51;;;;;;;6.57;1.70;;;;;;;;;;4959300;28;20034;-80
2022/11/10 03:17:17;;;;;;;8.63;2.25;;;;;;;;;;4949409;28;20034;-80
2022/11/10 03:19:42;;;;;;;7.97;2.42;;;;;;;;;;4943697;28;20388;-80
2022/11/10 03:22:07;;;;;;;6.35;1.85;;;;;;;;;;4952069;29;20508;-80
2022/11/10 03:24:33;;;;;;;5.72;1.80;;;;;;;;;;4961068;28;20086;-80
2022/11/10 03:26:58;;;;;;;7.78;2.00;;;;;;;;;;4962791;28;20043;-80
2022/11/10 03:29:23;;;;;;;7.65;1.60;;;;;;;;;;4950908;29;20027;-80
2022/11/10 03:31:49;;;;;;;7.28;1.77;;;;;;;;;;4965846;28;20031;-80
2022/11/10 03:34:14;;;;;;;5.57;1.58;;;;;;;;;;4956782;28;20023;-80
2022/11/10 03:36:40;;;;;;;6.80;1.63;;;;;;;;;;4949091;28;20035;-80
2022/11/10 03:39:05;;;;;;;7.20;1.77;;;;;;;;;;4948088;29;20046;-80
2022/11/10 03:41:30;;;;;;;8.02;1.85;;;;;;;;;;4951834;29;20039;-80
2022/11/10 03:43:56;;;;;;;7.32;1.60;;;;;;;;;;4947286;28;20173;-80
2022/11/10 03:46:21;;;;;;;4.88;1.27;;;;;;;;;;4963801;28;20027;-80
2022/11/10 03:48:47;;;;;;;9.48;1.80;;;;;;;;;;4948741;29;20431;-80
2022/11/10 03:51:12;;;;;;;4.63;1.58;;;;;;;;;;4949923;29;20034;-80
2022/11/10 03:53:38;;;;;;;4.70;1.70;;;;;;;;;;4949206;29;20106;-80
2022/11/10 03:56:04;;;;;;;9.13;1.70;;;;;;;;;;4946422;28;20023;-80
2022/11/10 03:58:30;;;;;;;6.40;1.63;;;;;;;;;;4959779;28;20034;-79
2022/11/10 04:00:56;;;;;;;7.63;2.05;;;;;;;;;;4966281;28;20118;-80
2022/11/10 04:03:22;;;;;;;8.43;2.13;;;;;;;;;;4943803;28;20436;-80
2022/11/10 04:15:40;;;;;;;5.15;1.50;;;;;;;;;;4951111;29;20042;-80
2022/11/10 04:16:45;;;;;;;5.95;1.63;;;;;;;;;;4949380;29;20041;-80
2022/11/10 04:19:10;;;;;;;7.32;1.80;;;;;;;;;;4951272;28;20027;-80
2022/11/10 04:21:35;;;;;;;5.57;1.85;;;;;;;;;;4947226;29;20606;-80
2022/11/10 04:24:01;;;;;;;8.45;1.70;;;;;;;;;;4949634;29;20078;-80
2022/11/10 04:26:29;;;;;;;8.82;1.83;;;;;;;;;;4949778;28;20039;-80
2022/11/10 04:29:03;;;;;;;6.05;1.50;;;;;;;;;;4950524;28;20027;-80
2022/11/10 04:31:31;;;;;;;6.45;1.60;;;;;;;;;;4944902;28;20046;-80
2022/11/10 04:33:57;;;;;;;5.28;1.50;;;;;;;;;;4963258;28;20114;-80
2022/11/10 04:36:29;;;;;;;6.72;1.65;;;;;;;;;;4947026;29;20171;-80
2022/11/10 04:38:55;;;;;;;6.35;1.55;;;;;;;;;;4948885;29;20492;-80
2022/11/10 04:41:22;;;;;;;6.50;1.70;;;;;;;;;;4943609;28;20019;-81
2022/11/10 04:43:47;;;;;;;6.80;1.90;;;;;;;;;;4947424;28;20043;-81
2022/11/10 04:46:25;;;;;;;5.70;1.92;;;;;;;;;;4955429;28;20125;-81
2022/11/10 04:48:52;;;;;;;4.72;1.30;;;;;;;;;;4945083;28;20542;-80
2022/11/10 04:51:19;;;;;;;5.40;1.30;;;;;;;;;;4946526;29;20475;-80
2022/11/10 04:53:44;;;;;;;9.25;1.42;;;;;;;;;;4964373;28;20027;-80
2022/11/10 04:56:22;;;;;;;4.10;1.33;;;;;;;;;;4945177;28;20034;-79
2022/11/10 04:58:48;;;;;;;5.93;1.70;;;;;;;;;;4949792;28;20118;-80
2022/11/10 05:01:16;;;;;;;9.38;2.38;;;;;;;;;;4948312;28;20027;-80
2022/11/10 05:03:42;;;;;;;5.68;1.23;;;;;;;;;;4951514;28;20118;-80
2022/11/10 05:06:08;;;;;;;7.40;1.55;;;;;;;;;;4948148;28;20556;-80
2022/11/10 05:08:36;;;;;;;6.13;1.42;;;;;;;;;;4947528;28;20051;-80
2022/11/10 05:11:02;;;;;;;7.55;1.67;;;;;;;;;;4947347;28;20034;-80
2022/11/10 05:13:28;;;;;;;5.93;1.45;;;;;;;;;;4949525;28;20031;-80
2022/11/10 05:15:53;;;;;;;7.40;2.05;;;;;;;;;;4947818;28;20119;-80
2022/11/10 05:18:19;;;;;;;6.35;1.65;;;;;;;;;;4945199;29;20042;-80
2022/11/10 05:20:44;;;;;;;9.07;1.88;;;;;;;;;;4948800;29;20045;-80
2022/11/10 05:25:54;;;;;;;8.48;1.67;;;;;;;;;;4950054;28;20089;-80
2022/11/10 05:28:19;;;;;;;10.57;1.75;;;;;;;;;;4950992;29;20031;-81
2022/11/10 05:30:45;;;;;;;7.53;1.50;;;;;;;;;;4957943;28;20027;-80
2022/11/10 05:33:10;;;;;;;4.93;1.50;;;;;;;;;;4966830;28;20372;-80
2022/11/10 05:35:36;;;;;;;4.88;1.35;;;;;;;;;;4952385;28;20042;-80
2022/11/10 05:38:02;;;;;;;6.65;1.70;;;;;;;;;;4952813;28;20027;-80
2022/11/10 05:40:28;;;;;;;5.97;1.38;;;;;;;;;;4947898;28;20123;-80
2022/11/10 05:42:54;;;;;;;7.07;1.30;;;;;;;;;;4943376;28;20411;-81
2022/11/10 05:45:21;;;;;;;5.55;1.90;;;;;;;;;;4953297;29;20027;-80
2022/11/10 05:47:47;;;;;;;10.13;1.80;;;;;;;;;;4949233;28;20039;-80
2022/11/10 05:50:12;;;;;;;5.60;1.55;;;;;;;;;;4950026;28;20015;-80
2022/11/10 05:52:43;;;;;;;8.05;1.92;;;;;;;;;;4951745;28;20093;-80
2022/11/10 05:55:09;;;;;;;7.65;1.90;;;;;;;;;;4957214;29;20399;-80
2022/11/10 05:57:35;;;;;;;4.72;1.17;;;;;;;;;;4953621;28;20530;-80
2022/11/10 06:00:01;;;;;;;7.18;1.55;;;;;;;;;;4954016;28;20038;-80
2022/11/10 06:02:27;;;;;;;7.78;1.77;;;;;;;;;;4951403;28;20070;-80
2022/11/10 06:04:52;;;;;;;5.18;1.48;;;;;;;;;;4951777;28;20452;-80
2022/11/10 06:07:17;;;;;;;5.95;1.50;;;;;;;;;;4949625;28;20098;-80
2022/11/10 06:09:44;;;;;;;8.95;1.63;;;;;;;;;;4949422;29;20397;-80
2022/11/10 06:12:09;;;;;;;6.82;1.48;;;;;;;;;;4955584;28;20034;-80
2022/11/10 06:14:35;;;;;;;6.38;1.63;;;;;;;;;;4952739;29;20488;-80
2022/11/10 06:17:00;;;;;;;6.50;1.55;;;;;;;;;;4952323;29;20046;-80
2022/11/10 06:19:25;;;;;;;6.25;1.67;;;;;;;;;;4948375;29;20035;-80
2022/11/10 06:21:51;;;;;;;8.15;1.80;;;;;;;;;;4967843;28;20146;-80
2022/11/10 06:24:16;;;;;;;6.40;1.60;;;;;;;;;;4952716;28;20422;-80
2022/11/10 06:26:41;;;;;;;7.25;1.60;;;;;;;;;;4944650;28;20031;-80
2022/11/10 06:29:07;;;;;;;5.57;1.50;;;;;;;;;;4967047;28;20372;-80
2022/11/10 06:31:32;;;;;;;9.00;1.75;;;;;;;;;;4952567;28;20030;-80
2022/11/10 06:33:57;;;;;;;7.25;1.50;;;;;;;;;;4955142;28;20027;-80
2022/11/10 06:36:23;;;;;;;8.52;1.45;;;;;;;;;;4955881;28;20027;-80
2022/11/10 06:38:48;;;;;;;7.38;1.60;;;;;;;;;;4967215;28;20028;-80
2022/11/10 06:41:14;;;;;;;9.50;1.60;;;;;;;;;;4954908;29;20035;-80
2022/11/10 06:43:39;;;;;;;4.43;1.10;;;;;;;;;;4953794;28;20035;-80
2022/11/10 06:46:04;;;;;;;5.63;1.27;;;;;;;;;;4968729;28;20035;-80
2022/11/10 06:48:30;;;;;;;6.25;1.60;;;;;;;;;;4948845;29;20039;-80
2022/11/10 06:50:59;;;;;;;5.65;1.58;;;;;;;;;;4952746;28;20027;-80
2022/11/10 06:53:24;;;;;;;5.50;1.35;;;;;;;;;;4953727;29;20457;-80
2022/11/10 06:55:50;;;;;;;5.57;1.58;;;;;;;;;;4952269;28;20059;-80
2022/11/10 06:58:15;;;;;;;6.18;1.70;;;;;;;;;;4952345;29;20046;-80
2022/11/10 07:00:40;;;;;;;6.13;1.80;;;;;;;;;;4964292;28;20118;-80
2022/11/10 07:03:11;;;;;;;6.40;1.60;;;;;;;;;;4948225;28;20038;-79
2022/11/10 07:05:36;;;;;;;7.00;1.30;;;;;;;;;;4965683;28;20391;-79
2022/11/10 07:08:06;;;;;;;3.70;1.20;;;;;;;;;;4949685;28;20023;-79
2022/11/10 07:10:32;;;;;;;7.20;1.60;;;;;;;;;;4951443;28;20169;-80
2022/11/10 07:12:59;;;;;;;6.65;1.63;;;;;;;;;;4950334;28;20487;-80
2022/11/10 07:15:25;;;;;;;4.70;1.95;;;;;;;;;;4949696;28;20090;-79
2022/11/10 07:17:50;;;;;;;7.35;1.50;;;;;;;;;;4952589;28;20507;-79
2022/11/10 07:20:16;;;;;;;9.27;1.88;;;;;;;;;;4946946;28;20038;-79
2022/11/10 07:22:41;;;;;;;6.40;1.67;;;;;;;;;;4966414;28;20027;-79
2022/11/10 07:25:07;;;;;;;6.68;1.50;;;;;;;;;;4951912;28;20382;-80
2022/11/10 07:27:32;;;;;;;9.25;1.65;;;;;;;;;;4954421;28;20035;-80
2022/11/10 07:29:57;;;;;;;7.35;1.85;;;;;;;;;;4950272;28;20501;-80
2022/11/10 07:32:23;;;;;;;6.07;1.40;;;;;;;;;;4953764;28;20031;-80
2022/11/10 07:34:48;;;;;;;6.30;1.35;;;;;;;;;;4953656;29;20065;-79
2022/11/10 07:37:14;;;;;;;6.63;1.52;;;;;;;;;;4953585;28;20199;-80
2022/11/10 07:39:39;;;;;;;6.22;1.40;;;;;;;;;;4952229;28;20035;-80
2022/11/10 07:42:04;;;;;;;6.50;1.65;;;;;;;;;;4969799;28;20023;-80
2022/11/10 07:44:30;;;;;;;6.72;1.45;;;;;;;;;;4954292;29;20034;-80
2022/11/10 07:46:55;;;;;;;6.05;1.60;;;;;;;;;;4970171;28;20027;-80
2022/11/10 07:49:20;;;;;;;5.85;1.50;;;;;;;;;;4953375;28;20061;-80
2022/11/10 07:51:46;;;;;;;7.68;1.45;;;;;;;;;;4958916;28;20023;-80
2022/11/10 07:54:11;;;;;;;5.90;1.50;;;;;;;;;;4952505;28;20182;-80
2022/11/10 07:56:37;;;;;;;6.75;1.60;;;;;;;;;;4970096;28;20035;-80
2022/11/10 07:59:02;;;;;;;4.10;1.10;;;;;;;;;;4953756;29;20050;-80
2022/11/10 08:01:28;;;;;;;8.32;1.90;;;;;;;;;;4955945;28;20042;-80
2022/11/10 08:03:53;;;;;;;9.55;1.88;;;;;;;;;;4952696;28;20027;-80
2022/11/10 08:06:18;;;;;;;7.60;1.80;;;;;;;;;;4954633;28;20106;-80
2022/11/10 08:08:47;;;;;;;8.68;1.98;;;;;;;;;;4953843;28;20098;-80
2022/11/10 08:11:12;;;;;;;6.68;1.80;;;;;;;;;;4967846;28;20034;-80
2022/11/10 08:13:38;;;;;;;5.30;1.40;;;;;;;;;;4953016;29;20031;-80
2022/11/10 08:16:04;;;;;;;6.78;1.65;;;;;;;;;;4950915;29;20094;-80
2022/11/10 08:18:29;;;;;;;9.60;1.75;;;;;;;;;;4952731;29;20035;-80
2022/11/10 08:20:55;;;;;;;6.22;1.67;;;;;;;;;;4954903;28;20494;-80
2022/11/10 08:23:20;;;;;;;9.25;1.90;;;;;;;;;;4952831;28;20035;-80
2022/11/10 08:25:46;;;;;;;8.18;1.70;;;;;;;;;;4953678;28;20031;-80
2022/11/10 08:28:16;;;;;;;9.30;1.80;;;;;;;;;;4944300;29;20400;-80
2022/11/10 08:30:43;;;;;;;5.22;1.50;;;;;;;;;;4953625;28;20085;-80
2022/11/10 08:33:11;;;;;;;7.25;1.60;;;;;;;;;;4953390;29;20046;-80
2022/11/10 08:35:38;;;;;;;6.70;1.70;;;;;;;;;;4953262;28;20023;-80
2022/11/10 08:38:12;;;;;;;10.32;2.13;;;;;;;;;;4953035;28;20086;-80
2022/11/10 08:40:39;;;;;;;6.40;1.70;;;;;;;;;;4941005;28;20031;-81
2022/11/10 08:43:07;;;;;;;7.47;2.00;;;;;;;;;;4951872;28;20031;-80
2022/11/10 08:45:38;;;;;;;10.43;2.10;;;;;;;;;;4966226;28;20032;-80
2022/11/10 08:48:10;;;;;;;8.15;2.00;;;;;;;;;;4952231;29;20031;-79
2022/11/10 08:50:36;;;;;;;7.03;2.20;;;;;;;;;;4953187;29;20023;-80
2022/11/10 08:53:13;;;;;;;9.80;1.90;;;;;;;;;;4951646;28;20035;-80
2022/11/10 08:55:39;;;;;;;9.23;1.80;;;;;;;;;;4952654;28;20559;-80
2022/11/10 08:58:07;;;;;;;6.43;2.30;;;;;;;;;;4964549;28;20513;-79
2022/11/10 09:00:33;;;;;;;9.07;2.00;;;;;;;;;;4953496;28;20384;-81
2022/11/10 09:03:06;;;;;;;6.97;1.92;;;;;;;;;;4946760;28;20066;-80
2022/11/10 09:05:33;;;;;;;6.75;2.20;;;;;;;;;;4953071;28;20025;-80
2022/11/10 09:07:58;;;;;;;8.82;1.85;;;;;;;;;;4954134;28;20059;-79
2022/11/10 09:10:23;;;;;;;6.90;1.85;;;;;;;;;;4968002;28;20059;-80
2022/11/10 09:12:49;;;;;;;6.18;1.83;;;;;;;;;;4953661;28;20046;-80
2022/11/10 09:15:14;;;;;;;8.95;2.10;;;;;;;;;;4953096;28;20038;-80
2022/11/10 09:17:40;;;;;;;6.18;1.80;;;;;;;;;;4953600;28;20030;-79
2022/11/10 09:20:07;;;;;;;7.28;2.28;;;;;;;;;;4953985;29;20496;-80
2022/11/10 09:22:34;;;;;;;11.25;2.25;;;;;;;;;;4952682;28;20032;-81
2022/11/10 09:25:00;;;;;;;8.82;2.10;;;;;;;;;;4962084;28;20036;-80
2022/11/10 09:27:25;;;;;;;8.60;2.15;;;;;;;;;;4954278;28;20110;-79
2022/11/10 09:29:50;;;;;;;8.93;2.08;;;;;;;;;;4952833;29;20474;-80
2022/11/10 09:32:16;;;;;;;9.50;2.20;;;;;;;;;;4953364;28;20179;-80
2022/11/10 09:34:42;;;;;;;7.95;2.30;;;;;;;;;;4948809;29;20030;-80
2022/11/10 09:37:07;;;;;;;6.82;2.40;;;;;;;;;;4965657;28;20161;-80
2022/11/10 09:39:33;;;;;;;6.95;2.30;;;;;;;;;;4947705;28;20035;-79
2022/11/10 09:41:58;;;;;;;7.28;2.35;;;;;;;;;;4968139;28;20038;-80
2022/11/10 09:44:32;;;;;;;8.30;2.22;;;;;;;;;;4952853;29;20387;-80
2022/11/10 09:47:08;;;;;;;5.30;2.08;;;;;;;;;;4952649;29;20043;-80
2022/11/10 09:49:55;;;;;;;5.65;2.05;;;;;;;;;;4952340;29;20471;-80
2022/11/10 09:52:23;;;;;;;7.65;2.15;;;;;;;;;;4948911;28;20069;-80
2022/11/10 09:54:56;;;;;;;8.10;2.33;;;;;;;;;;4952817;29;20114;-80
2022/11/10 09:57:25;;;;;;;8.70;2.38;;;;;;;;;;4952741;29;20023;-80
2022/11/10 09:59:50;;;;;;;8.73;2.40;;;;;;;;;;4952586;29;20396;-80
2022/11/10 10:02:41;;;;;;;10.90;3.25;;;;;;;;;;4967966;28;20038;-80
2022/11/10 10:05:28;;;;;;;8.57;2.35;;;;;;;;;;4966782;28;20033;-80
2022/11/10 10:08:08;;;;;;;8.35;2.20;;;;;;;;;;4967108;28;20271;-79
2022/11/10 10:10:43;;;;;;;7.97;2.35;;;;;;;;;;4968536;28;20022;-80
2022/11/10 10:13:15;;;;;;;4.78;2.00;;;;;;;;;;4955330;28;20502;-79
2022/11/10 10:16:03;;;;;;;12.00;2.22;;;;;;;;;;4968979;28;20030;-80
2022/11/10 10:19:16;;;;;;;7.50;2.60;;;;;;;;;;4967224;28;20152;-79
2022/11/10 10:22:01;;;;;;;6.60;2.33;;;;;;;;;;4895871;28;20508;-79
2022/11/10 10:24:29;;;;;;;11.07;3.03;;;;;;;;;;4970988;28;20036;-80
2022/11/10 10:26:58;;;;;;;11.80;2.03;;;;;;;;;;4971531;28;20031;-79
2022/11/10 10:29:30;;;;;;;9.40;2.50;;;;;;;;;;4955652;29;20066;-80
2022/11/10 10:31:57;;;;;;;9.07;1.95;;;;;;;;;;4969949;28;20066;-79
2022/11/10 10:34:35;;;;;;;9.02;2.20;;;;;;;;;;4955528;29;20024;-79
2022/11/10 10:37:00;;;;;;;8.23;2.20;;;;;;;;;;4970553;28;20486;-80
2022/11/10 10:39:33;;;;;;;7.45;1.60;;;;;;;;;;4954772;28;20027;-79
2022/11/10 10:41:58;;;;;;;7.28;1.98;;;;;;;;;;4955018;29;20029;-79
2022/11/10 10:44:24;;;;;;;9.82;1.83;;;;;;;;;;4956538;28;20399;-79
2022/11/10 10:46:53;;;;;;;7.97;2.05;;;;;;;;;;4954856;28;20030;-80
2022/11/10 10:49:27;;;;;;;11.43;2.20;;;;;;;;;;4956621;28;20035;-80
2022/11/10 10:52:12;;;;;;;9.00;1.90;;;;;;;;;;4968811;28;20508;-80
2022/11/10 10:54:39;;;;;;;7.43;2.28;;;;;;;;;;4957171;28;20035;-80
2022/11/10 10:57:27;;;;;;;14.10;3.10;;;;;;;;;;4960687;28;20031;-79
2022/11/10 11:00:18;;;;;;;6.28;1.63;;;;;;;;;;4953517;28;20027;-80
2022/11/10 11:03:00;;;;;;;8.98;1.80;;;;;;;;;;4953230;28;20019;-80
2022/11/10 11:05:25;;;;;;;7.40;1.95;;;;;;;;;;4946919;28;20023;-80
2022/11/10 11:07:57;;;;;;;5.00;1.60;;;;;;;;;;4969572;28;20027;-79
2022/11/10 11:10:34;;;;;;;8.32;1.80;;;;;;;;;;4955746;28;20034;-79
2022/11/10 11:13:21;;;;;;;9.05;1.90;;;;;;;;;;4954976;29;20035;-79
2022/11/10 11:16:06;;;;;;;4.78;1.30;;;;;;;;;;4969885;28;20384;-80
2022/11/10 11:18:31;;;;;;;6.40;2.13;;;;;;;;;;4965352;28;20121;-79
2022/11/10 11:20:57;;;;;;;7.65;1.83;;;;;;;;;;4954953;28;20115;-79
2022/11/10 11:23:56;;;;;;;5.55;1.48;;;;;;;;;;4955293;28;20045;-78
2022/11/10 11:26:34;;;;;;;10.02;1.65;;;;;;;;;;4953030;28;20054;-79
2022/11/10 11:29:28;;;;;;;5.93;1.40;;;;;;;;;;4957031;28;20463;-79
2022/11/10 11:32:05;;;;;;;10.18;1.80;;;;;;;;;;4947591;28;20027;-80
2022/11/10 11:34:49;;;;;;;9.32;1.80;;;;;;;;;;4951905;28;20514;-79
2022/11/10 11:37:39;;;;;;;8.23;1.42;;;;;;;;;;4962754;28;20023;-80
2022/11/10 11:40:32;;;;;;;9.50;1.75;;;;;;;;;;4934175;28;20176;-80
2022/11/10 11:43:06;;;;;;;6.10;1.30;;;;;;;;;;4969877;28;20023;-79
2022/11/10 11:45:59;;;;;;;7.78;1.50;;;;;;;;;;4964564;28;20082;-79
2022/11/10 11:49:03;;;;;;;11.23;1.30;;;;;;;;;;4958239;28;20508;-79
2022/11/10 11:51:28;;;;;;;9.63;1.42;;;;;;;;;;4951111;28;20082;-79
2022/11/10 11:54:26;;;;;;;6.20;1.42;;;;;;;;;;4969433;28;20458;-79
2022/11/10 11:57:03;;;;;;;3.80;1.40;;;;;;;;;;4970513;28;20058;-79
2022/11/10 11:59:38;;;;;;;7.97;1.27;;;;;;;;;;4951852;28;20038;-79
2022/11/10 12:02:30;;;;;;;8.10;1.30;;;;;;;;;;4970156;28;20019;-79
2022/11/10 12:05:10;;;;;;;5.97;1.27;;;;;;;;;;4945753;28;20023;-80
2022/11/10 12:07:49;;;;;;;6.75;1.48;;;;;;;;;;4967189;28;20033;-80
2022/11/10 12:10:51;;;;;;;5.47;1.08;;;;;;;;;;4950787;28;20154;-79
2022/11/10 12:13:36;;;;;;;6.15;1.48;;;;;;;;;;4947955;29;20046;-79
2022/11/10 12:16:26;;;;;;;8.93;1.42;;;;;;;;;;4956876;28;20466;-79
2022/11/10 12:19:14;;;;;;;5.25;1.05;;;;;;;;;;4955031;28;20550;-78
2022/11/10 12:22:01;;;;;;;8.65;1.20;;;;;;;;;;4964045;28;20027;-79
2022/11/10 12:24:35;;;;;;;8.88;1.40;;;;;;;;;;4954382;28;20492;-79
2022/11/10 12:27:19;;;;;;;6.50;1.33;;;;;;;;;;4952241;28;20054;-79
2022/11/10 12:29:45;;;;;;;8.15;1.08;;;;;;;;;;4949110;29;20472;-79
2022/11/10 12:32:30;;;;;;;5.57;1.40;;;;;;;;;;4969240;28;20123;-79
2022/11/10 12:35:06;;;;;;;4.60;1.00;;;;;;;;;;4954698;28;20039;-79
2022/11/10 12:37:45;;;;;;;4.72;1.13;;;;;;;;;;4967039;28;20127;-79
2022/11/10 12:40:23;;;;;;;7.28;1.20;;;;;;;;;;4951129;28;20122;-79
2022/11/10 12:42:59;;;;;;;7.65;1.65;;;;;;;;;;4950085;28;20038;-79
2022/11/10 12:45:38;;;;;;;5.15;0.88;;;;;;;;;;4953747;29;20030;-79
2022/11/10 12:48:05;;;;;;;12.98;2.15;;;;;;;;;;4954573;28;20023;-79
2022/11/10 12:50:39;;;;;;;6.20;1.02;;;;;;;;;;4951800;28;20495;-78
2022/11/10 12:53:21;;;;;;;5.15;1.10;;;;;;;;;;4957091;28;20490;-79
2022/11/10 12:55:55;;;;;;;5.03;1.08;;;;;;;;;;4943106;29;20491;-78
2022/11/10 12:58:21;;;;;;;6.47;1.40;;;;;;;;;;4953199;28;20077;-79
2022/11/10 13:01:13;;;;;;;9.82;1.13;;;;;;;;;;4967166;28;20487;-79
2022/11/10 13:03:51;;;;;;;5.13;1.30;;;;;;;;;;4954277;28;20027;-79
2022/11/10 13:06:31;;;;;;;7.20;1.27;;;;;;;;;;4954600;28;20023;-79
2022/11/10 13:08:58;;;;;;;4.18;0.98;;;;;;;;;;4952014;28;20419;-79
2022/11/10 13:11:35;;;;;;;6.28;1.23;;;;;;;;;;4954374;29;20054;-78
2022/11/10 13:14:26;;;;;;;8.13;1.48;;;;;;;;;;4969164;28;20027;-79
2022/11/10 13:16:53;;;;;;;4.82;1.10;;;;;;;;;;4949202;29;20065;-79
2022/11/10 13:19:21;;;;;;;7.32;1.48;;;;;;;;;;4954169;28;20497;-79
2022/11/10 13:21:50;;;;;;;6.70;0.90;;;;;;;;;;4960249;28;20384;-78
2022/11/10 13:24:45;;;;;;;4.80;1.17;;;;;;;;;;4954472;28;20369;-79
2022/11/10 13:27:34;;;;;;;5.97;1.08;;;;;;;;;;4952628;28;20035;-79
2022/11/10 13:29:59;;;;;;;6.43;1.08;;;;;;;;;;4942753;28;20086;-78
2022/11/10 13:32:26;;;;;;;4.95;1.00;;;;;;;;;;4952538;29;20035;-78
2022/11/10 13:34:52;;;;;;;6.88;1.35;;;;;;;;;;4953994;28;20023;-78
2022/11/10 13:37:33;;;;;;;7.50;1.13;;;;;;;;;;4965384;28;20463;-78
2022/11/10 13:40:17;;;;;;;8.02;1.10;;;;;;;;;;4967250;28;20035;-78
2022/11/10 13:42:43;;;;;;;4.28;1.00;;;;;;;;;;4947787;29;20094;-78
2022/11/10 13:45:32;;;;;;;4.38;0.85;;;;;;;;;;4946603;28;20103;-78
2022/11/10 13:48:10;;;;;;;4.13;1.00;;;;;;;;;;4957785;29;20094;-78
2022/11/10 13:50:42;;;;;;;3.00;0.90;;;;;;;;;;4949348;28;20440;-79
2022/11/10 13:53:37;;;;;;;6.05;0.80;;;;;;;;;;4957004;28;20023;-79
2022/11/10 13:56:25;;;;;;;5.55;1.38;;;;;;;;;;4955561;29;20491;-78
2022/11/10 13:58:51;;;;;;;5.07;1.05;;;;;;;;;;4949858;29;20019;-78
2022/11/10 14:01:16;;;;;;;4.53;1.33;;;;;;;;;;4957493;28;20034;-78
2022/11/10 14:03:45;;;;;;;4.50;1.08;;;;;;;;;;4972230;28;20555;-78
2022/11/10 14:06:17;;;;;;;5.85;0.90;;;;;;;;;;4955372;28;20039;-79
2022/11/10 14:08:51;;;;;;;8.75;1.20;;;;;;;;;;4954565;28;20057;-78
2022/11/10 14:11:26;;;;;;;7.95;1.02;;;;;;;;;;4965393;28;20077;-79
2022/11/10 14:13:59;;;;;;;4.22;1.00;;;;;;;;;;4957444;28;20034;-78
2022/11/10 14:16:27;;;;;;;4.03;1.10;;;;;;;;;;4956452;28;20028;-78
2022/11/10 14:19:34;;;;;;;4.22;0.90;;;;;;;;;;4971927;28;20035;-78
2022/11/10 14:22:07;;;;;;;6.30;0.90;;;;;;;;;;4923280;29;20028;-78
2022/11/10 14:24:47;;;;;;;2.88;0.80;;;;;;;;;;4899070;29;20036;-79
2022/11/10 14:27:20;;;;;;;3.35;0.88;;;;;;;;;;4931105;28;20063;-78
2022/11/10 14:29:45;;;;;;;2.75;0.80;;;;;;;;;;4955809;28;20054;-78
2022/11/10 14:32:16;;;;;;;4.22;0.77;;;;;;;;;;4955673;29;20488;-78
2022/11/10 14:34:50;;;;;;;4.75;1.00;;;;;;;;;;4956149;29;20023;-79
2022/11/10 14:37:34;;;;;;;6.13;1.10;;;;;;;;;;4953319;28;20027;-78
2022/11/10 14:40:00;;;;;;;4.00;0.80;;;;;;;;;;4956162;28;20027;-78
2022/11/10 14:42:29;;;;;;;3.47;1.00;;;;;;;;;;4952715;28;20535;-78
2022/11/10 14:45:27;;;;;;;6.28;1.20;;;;;;;;;;4955471;28;20373;-78
2022/11/10 14:47:55;;;;;;;4.60;0.77;;;;;;;;;;4964421;28;20047;-78
2022/11/10 14:50:23;;;;;;;3.55;0.77;;;;;;;;;;4954772;28;20498;-78
2022/11/10 14:53:30;;;;;;;4.47;1.20;;;;;;;;;;4955372;29;20055;-78
2022/11/10 14:55:56;;;;;;;3.55;1.08;;;;;;;;;;4932504;29;20047;-78
2022/11/10 14:58:26;;;;;;;3.40;0.70;;;;;;;;;;4959613;28;20035;-79
2022/11/10 15:00:53;;;;;;;4.90;1.10;;;;;;;;;;4960576;28;20031;-78
2022/11/10 15:03:33;;;;;;;5.80;1.02;;;;;;;;;;4955973;28;20106;-78
2022/11/10 15:06:01;;;;;;;5.03;1.30;;;;;;;;;;4968986;28;20091;-78
2022/11/10 15:08:27;;;;;;;2.72;0.80;;;;;;;;;;4970614;28;20114;-78
2022/11/10 15:10:55;;;;;;;4.97;1.40;;;;;;;;;;4969643;28;20027;-78
2022/11/10 15:13:26;;;;;;;4.50;1.00;;;;;;;;;;4956225;28;20028;-78
2022/11/10 15:16:10;;;;;;;4.47;1.17;;;;;;;;;;4948941;28;20079;-78